Time;durP1;ratioP1;P1;durP2;ratioP2;P2;SDS_P1;SDS_P2;PMS_P1;PMS_P2;Temp;Humidity;BMP_temperature;BMP_pressure;BME280_temperature;BME280_humidity;BME280_pressure;Samples;Min_cycle;Max_cycle;Signal;HPM_P1;HPM_P2
2021/12/25 00:00:08;;;;;;;1.97;1.70;;;;;;;;;;5074003;28;20418;-71
2021/12/25 00:02:35;;;;;;;3.20;1.43;;;;;;;;;;5074660;28;20445;-72
2021/12/25 00:05:01;;;;;;;3.43;1.70;;;;;;;;;;5074755;28;20403;-73
2021/12/25 00:07:27;;;;;;;2.53;1.70;;;;;;;;;;5074559;28;20407;-71
2021/12/25 00:09:53;;;;;;;1.70;1.33;;;;;;;;;;5074027;28;20446;-69
2021/12/25 00:12:19;;;;;;;2.73;1.53;;;;;;;;;;5074225;28;20438;-71
2021/12/25 00:14:45;;;;;;;3.43;1.90;;;;;;;;;;5074234;28;20898;-69
2021/12/25 00:17:11;;;;;;;2.20;1.20;;;;;;;;;;5074541;28;20884;-69
2021/12/25 00:19:37;;;;;;;1.90;1.50;;;;;;;;;;5074226;28;20912;-70
2021/12/25 00:22:03;;;;;;;2.80;1.47;;;;;;;;;;5073510;28;21032;-70
2021/12/25 00:24:29;;;;;;;4.37;1.63;;;;;;;;;;5074067;28;20426;-72
2021/12/25 00:34:38;;;;;;;2.17;1.23;;;;;;;;;;5075359;28;20473;-71
2021/12/25 00:37:05;;;;;;;2.07;1.20;;;;;;;;;;5073967;28;20407;-70
2021/12/25 00:39:31;;;;;;;6.13;1.93;;;;;;;;;;5074076;28;20411;-72
2021/12/25 00:41:58;;;;;;;6.90;1.87;;;;;;;;;;5073493;28;20540;-69
2021/12/25 00:44:25;;;;;;;2.10;1.30;;;;;;;;;;5073730;28;20564;-71
2021/12/25 00:46:51;;;;;;;4.37;1.40;;;;;;;;;;5073047;28;20536;-70
2021/12/25 00:49:17;;;;;;;3.50;1.40;;;;;;;;;;5073965;28;20907;-72
2021/12/25 00:51:43;;;;;;;6.13;1.70;;;;;;;;;;5073277;28;20960;-69
2021/12/25 00:54:09;;;;;;;4.73;2.87;;;;;;;;;;5073637;28;20450;-70
2021/12/25 00:56:36;;;;;;;6.83;1.63;;;;;;;;;;5073901;28;20446;-69
2021/12/25 00:59:02;;;;;;;4.20;1.50;;;;;;;;;;5073177;28;20414;-71
2021/12/25 01:01:28;;;;;;;6.47;1.43;;;;;;;;;;5073194;28;20967;-70
2021/12/25 01:03:54;;;;;;;3.30;1.13;;;;;;;;;;5073607;28;21310;-71
2021/12/25 01:06:20;;;;;;;8.77;1.40;;;;;;;;;;5073412;28;20403;-69
2021/12/25 01:08:46;;;;;;;1.50;1.00;;;;;;;;;;5073470;28;20403;-70
2021/12/25 01:11:13;;;;;;;2.77;1.27;;;;;;;;;;5072770;28;20418;-69
2021/12/25 01:13:46;;;;;;;5.87;1.47;;;;;;;;;;5073221;28;20434;-69
2021/12/25 01:36:56;;;;;;;5.00;1.53;;;;;;;;;;5073961;28;20494;-69
2021/12/25 01:47:53;;;;;;;4.90;1.20;;;;;;;;;;5074037;28;20464;-69
2021/12/25 01:50:24;;;;;;;4.00;1.80;;;;;;;;;;5072158;28;20445;-73
2021/12/25 01:52:51;;;;;;;5.97;1.40;;;;;;;;;;5073796;28;20895;-70
2021/12/25 01:55:18;;;;;;;6.90;1.73;;;;;;;;;;5072734;28;20410;-68
2021/12/25 01:57:44;;;;;;;1.70;1.17;;;;;;;;;;5071548;28;20864;-71
2021/12/25 02:00:14;;;;;;;11.17;1.63;;;;;;;;;;5071773;28;20418;-72
2021/12/25 02:02:40;;;;;;;11.13;1.40;;;;;;;;;;5073641;28;20423;-70
2021/12/25 02:05:06;;;;;;;3.63;1.20;;;;;;;;;;5072208;28;20488;-71
2021/12/25 02:07:32;;;;;;;6.73;1.47;;;;;;;;;;5072412;28;20884;-71
2021/12/25 02:09:58;;;;;;;1.87;1.23;;;;;;;;;;5071883;28;20403;-71
2021/12/25 02:12:24;;;;;;;3.67;1.30;;;;;;;;;;5071695;28;20411;-70
2021/12/25 02:14:52;;;;;;;5.57;1.43;;;;;;;;;;5072225;28;20395;-69
2021/12/25 02:17:25;;;;;;;2.10;1.13;;;;;;;;;;5072304;28;20407;-70
2021/12/25 02:20:08;;;;;;;1.53;1.03;;;;;;;;;;5071846;28;20433;-71
2021/12/25 02:22:34;;;;;;;4.90;1.33;;;;;;;;;;5071666;28;20422;-74
2021/12/25 02:25:00;;;;;;;11.57;2.30;;;;;;;;;;5071759;28;20689;-74
2021/12/25 02:27:26;;;;;;;9.53;1.70;;;;;;;;;;5072079;28;20399;-72
2021/12/25 02:29:52;;;;;;;17.63;1.80;;;;;;;;;;5071708;28;20403;-71
2021/12/25 02:32:18;;;;;;;22.27;2.17;;;;;;;;;;5071914;28;20439;-71
2021/12/25 02:34:44;;;;;;;10.83;2.47;;;;;;;;;;5071893;28;20400;-69
2021/12/25 02:37:10;;;;;;;8.20;1.50;;;;;;;;;;5071633;28;20475;-71
2021/12/25 02:39:37;;;;;;;4.63;1.87;;;;;;;;;;5072142;28;20879;-74
2021/12/25 02:42:03;;;;;;;12.37;1.70;;;;;;;;;;5071394;28;20548;-76
2021/12/25 02:44:31;;;;;;;5.47;1.70;;;;;;;;;;5072042;28;21011;-71
2021/12/25 02:46:59;;;;;;;9.30;2.27;;;;;;;;;;5072063;28;20410;-70
2021/12/25 02:49:25;;;;;;;8.17;1.87;;;;;;;;;;5071406;28;20411;-74
2021/12/25 02:51:52;;;;;;;6.83;1.60;;;;;;;;;;5071512;28;20739;-70
2021/12/25 02:54:18;;;;;;;3.17;1.50;;;;;;;;;;5071799;28;20449;-71
2021/12/25 02:56:44;;;;;;;2.13;1.43;;;;;;;;;;5071743;28;20415;-75
2021/12/25 02:59:15;;;;;;;6.60;1.40;;;;;;;;;;5071696;28;20415;-73
2021/12/25 03:01:41;;;;;;;3.83;1.60;;;;;;;;;;5071153;28;20465;-75
2021/12/25 03:04:07;;;;;;;1.30;1.17;;;;;;;;;;5071398;28;20459;-73
2021/12/25 03:06:37;;;;;;;8.90;1.70;;;;;;;;;;5071763;28;20455;-74
2021/12/25 03:09:05;;;;;;;2.90;1.37;;;;;;;;;;5072515;28;20406;-68
2021/12/25 03:11:31;;;;;;;2.20;1.43;;;;;;;;;;5075317;28;20413;-74
2021/12/25 03:14:11;;;;;;;2.60;1.30;;;;;;;;;;5075182;28;20434;-71
2021/12/25 03:16:38;;;;;;;1.97;1.10;;;;;;;;;;5075846;28;20831;-73
2021/12/25 03:19:07;;;;;;;1.70;1.30;;;;;;;;;;5075224;28;20497;-75
2021/12/25 03:21:33;;;;;;;2.70;1.57;;;;;;;;;;5075157;28;20560;-69
2021/12/25 03:23:59;;;;;;;6.93;1.80;;;;;;;;;;5075276;28;20430;-71
2021/12/25 03:26:25;;;;;;;2.50;1.43;;;;;;;;;;5075027;28;20398;-74
2021/12/25 03:28:53;;;;;;;5.23;1.53;;;;;;;;;;5075397;28;20913;-70
2021/12/25 03:31:21;;;;;;;4.00;1.67;;;;;;;;;;5075052;28;20895;-72
2021/12/25 03:33:49;;;;;;;3.70;1.47;;;;;;;;;;5074983;28;20434;-73
2021/12/25 03:36:15;;;;;;;4.90;1.40;;;;;;;;;;5075238;28;20991;-70
2021/12/25 03:38:42;;;;;;;9.77;1.77;;;;;;;;;;5075003;28;20425;-73
2021/12/25 03:41:08;;;;;;;1.33;1.00;;;;;;;;;;5075836;28;20499;-71
2021/12/25 03:43:35;;;;;;;1.70;1.00;;;;;;;;;;5075143;28;20423;-72
2021/12/25 03:46:01;;;;;;;1.83;1.20;;;;;;;;;;5075080;28;20411;-73
2021/12/25 03:59:03;;;;;;;2.83;1.60;;;;;;;;;;5076343;28;20398;-71
2021/12/25 04:01:45;;;;;;;2.13;1.47;;;;;;;;;;5074223;28;21001;-72
2021/12/25 04:04:35;;;;;;;1.37;0.93;;;;;;;;;;5074282;28;21125;-73
2021/12/25 04:09:32;;;;;;;1.90;1.30;;;;;;;;;;5076097;28;20429;-72
2021/12/25 04:12:00;;;;;;;3.63;1.70;;;;;;;;;;5074159;28;20767;-70
2021/12/25 04:14:26;;;;;;;2.47;1.40;;;;;;;;;;5074113;28;20435;-72
2021/12/25 04:16:53;;;;;;;1.73;1.30;;;;;;;;;;5075873;28;20402;-70
2021/12/25 04:19:19;;;;;;;1.60;1.13;;;;;;;;;;5074357;28;20438;-72
2021/12/25 04:24:23;;;;;;;2.10;1.40;;;;;;;;;;5075600;28;20430;-74
2021/12/25 04:26:50;;;;;;;1.27;0.93;;;;;;;;;;5073798;28;20417;-71
2021/12/25 04:29:35;;;;;;;1.67;1.20;;;;;;;;;;5074262;28;20407;-70
2021/12/25 05:02:13;;;;;;;1.80;1.20;;;;;;;;;;5074299;28;20453;-73
2021/12/25 05:04:46;;;;;;;1.50;1.07;;;;;;;;;;5073376;28;20414;-69
2021/12/25 05:07:13;;;;;;;1.60;1.20;;;;;;;;;;5073601;28;20826;-72
2021/12/25 05:09:39;;;;;;;2.87;1.20;;;;;;;;;;5073358;28;20411;-71
2021/12/25 05:12:05;;;;;;;1.60;1.20;;;;;;;;;;5072916;28;20421;-69
2021/12/25 05:14:31;;;;;;;2.27;1.20;;;;;;;;;;5073387;28;20427;-71
2021/12/25 05:16:58;;;;;;;1.63;1.03;;;;;;;;;;5072732;28;20410;-72
2021/12/25 05:19:25;;;;;;;1.90;1.30;;;;;;;;;;5073172;28;20458;-74
2021/12/25 05:21:51;;;;;;;1.80;1.20;;;;;;;;;;5072691;28;20537;-74
2021/12/25 05:24:17;;;;;;;1.70;1.20;;;;;;;;;;5072869;28;20430;-72
2021/12/25 05:26:44;;;;;;;2.07;1.03;;;;;;;;;;5073113;28;20407;-74
2021/12/25 05:29:10;;;;;;;1.80;1.20;;;;;;;;;;5072579;28;20414;-73
2021/12/25 05:31:37;;;;;;;2.70;1.10;;;;;;;;;;5072476;28;21029;-74
2021/12/25 05:34:04;;;;;;;2.10;1.40;;;;;;;;;;5072645;28;20492;-74
2021/12/25 05:36:30;;;;;;;1.80;1.17;;;;;;;;;;5074247;28;20399;-72
2021/12/25 05:38:58;;;;;;;2.70;1.00;;;;;;;;;;5072820;28;20973;-70
2021/12/25 05:41:25;;;;;;;1.80;1.10;;;;;;;;;;5072007;28;20461;-71
2021/12/25 05:43:51;;;;;;;1.80;1.00;;;;;;;;;;5072727;28;20423;-73
2021/12/25 05:46:17;;;;;;;1.70;1.17;;;;;;;;;;5072526;28;20414;-74
2021/12/25 05:48:45;;;;;;;1.87;1.03;;;;;;;;;;5072773;28;20407;-73
2021/12/25 05:51:12;;;;;;;2.77;1.00;;;;;;;;;;5072183;28;20547;-69
2021/12/25 05:53:38;;;;;;;1.17;0.70;;;;;;;;;;5072059;28;20492;-72
2021/12/25 05:56:04;;;;;;;3.43;0.87;;;;;;;;;;5072507;28;20418;-71
2021/12/25 05:58:31;;;;;;;1.23;0.90;;;;;;;;;;5072592;28;20418;-69
2021/12/25 06:00:57;;;;;;;2.20;1.30;;;;;;;;;;5071972;28;20476;-72
2021/12/25 06:03:23;;;;;;;5.07;0.90;;;;;;;;;;5072340;28;20529;-70
2021/12/25 06:05:49;;;;;;;3.80;1.00;;;;;;;;;;5072210;28;20461;-72
2021/12/25 06:08:16;;;;;;;1.67;1.10;;;;;;;;;;5072340;28;20407;-69
2021/12/25 06:10:42;;;;;;;1.67;1.00;;;;;;;;;;5071913;28;20414;-69
2021/12/25 06:13:10;;;;;;;1.23;0.83;;;;;;;;;;5072150;28;20427;-75
2021/12/25 06:15:37;;;;;;;1.90;1.00;;;;;;;;;;5072357;28;20426;-71
2021/12/25 06:18:03;;;;;;;2.30;1.00;;;;;;;;;;5071752;28;20473;-70
2021/12/25 06:20:29;;;;;;;1.70;0.80;;;;;;;;;;5071925;28;20493;-69
2021/12/25 06:22:55;;;;;;;1.27;0.73;;;;;;;;;;5072068;28;20427;-70
2021/12/25 06:25:22;;;;;;;7.70;1.53;;;;;;;;;;5071977;28;20449;-73
2021/12/25 06:27:48;;;;;;;9.67;1.27;;;;;;;;;;5072276;28;20429;-70
2021/12/25 06:30:14;;;;;;;12.17;1.60;;;;;;;;;;5071361;28;20414;-68
2021/12/25 06:32:41;;;;;;;4.27;1.20;;;;;;;;;;5071853;28;20450;-70
2021/12/25 06:35:07;;;;;;;7.93;1.40;;;;;;;;;;5072064;28;20741;-69
2021/12/25 06:37:33;;;;;;;7.00;1.27;;;;;;;;;;5072059;28;20406;-68
2021/12/25 06:39:59;;;;;;;11.60;1.50;;;;;;;;;;5071428;28;20457;-70
2021/12/25 06:42:25;;;;;;;6.70;1.27;;;;;;;;;;5071357;28;20966;-71
2021/12/25 06:44:51;;;;;;;6.07;1.67;;;;;;;;;;5071435;28;20403;-70
2021/12/25 06:47:17;;;;;;;12.33;1.50;;;;;;;;;;5071805;28;20410;-70
2021/12/25 06:49:43;;;;;;;7.97;1.07;;;;;;;;;;5071924;28;20461;-70
2021/12/25 06:52:10;;;;;;;2.23;0.80;;;;;;;;;;5071455;28;20419;-70
2021/12/25 06:54:36;;;;;;;3.33;1.30;;;;;;;;;;5071566;28;20418;-69
2021/12/25 06:57:03;;;;;;;18.13;1.83;;;;;;;;;;5071794;28;20419;-68
2021/12/25 06:59:30;;;;;;;2.07;1.00;;;;;;;;;;5071804;28;20422;-69
2021/12/25 07:01:57;;;;;;;3.77;1.40;;;;;;;;;;5071206;28;20505;-68
2021/12/25 07:04:23;;;;;;;3.30;1.17;;;;;;;;;;5071661;28;20435;-69
2021/12/25 07:06:49;;;;;;;3.30;1.20;;;;;;;;;;5071630;28;20407;-69
2021/12/25 07:09:15;;;;;;;4.93;1.10;;;;;;;;;;5071613;28;20410;-69
2021/12/25 07:11:43;;;;;;;1.60;1.00;;;;;;;;;;5071406;28;20413;-69
2021/12/25 07:14:11;;;;;;;1.50;0.93;;;;;;;;;;5070931;28;20584;-68
2021/12/25 07:16:37;;;;;;;2.20;0.93;;;;;;;;;;5070994;28;20418;-72
2021/12/25 07:19:04;;;;;;;1.50;1.00;;;;;;;;;;5070967;28;20427;-71
2021/12/25 07:21:30;;;;;;;2.20;1.10;;;;;;;;;;5071192;28;20454;-72
2021/12/25 07:23:56;;;;;;;2.00;1.33;;;;;;;;;;5071333;28;20506;-71
2021/12/25 07:26:22;;;;;;;2.80;1.50;;;;;;;;;;5071552;28;20418;-67
2021/12/25 07:28:49;;;;;;;5.70;1.10;;;;;;;;;;5071401;28;20418;-68
2021/12/25 07:31:15;;;;;;;11.37;1.60;;;;;;;;;;5070494;28;20403;-69
2021/12/25 07:33:42;;;;;;;2.43;1.20;;;;;;;;;;5071449;28;20583;-70
2021/12/25 07:36:12;;;;;;;5.63;1.30;;;;;;;;;;5071242;28;20423;-68
2021/12/25 07:38:38;;;;;;;3.43;1.00;;;;;;;;;;5071396;28;20438;-68
2021/12/25 07:41:04;;;;;;;4.80;1.30;;;;;;;;;;5070560;28;20959;-70
2021/12/25 07:43:30;;;;;;;2.03;0.90;;;;;;;;;;5070567;28;20430;-70
2021/12/25 07:45:56;;;;;;;4.37;1.30;;;;;;;;;;5070869;28;20433;-69
2021/12/25 07:48:25;;;;;;;2.03;1.30;;;;;;;;;;5071008;28;20403;-68
2021/12/25 07:50:51;;;;;;;5.07;1.67;;;;;;;;;;5070953;28;20425;-70
2021/12/25 07:53:17;;;;;;;5.07;1.13;;;;;;;;;;5071008;28;20480;-71
2021/12/25 07:55:44;;;;;;;1.50;0.93;;;;;;;;;;5071060;28;20419;-68
2021/12/25 07:58:11;;;;;;;6.80;1.00;;;;;;;;;;5074664;28;20891;-68
2021/12/25 08:00:37;;;;;;;1.93;0.80;;;;;;;;;;5074289;28;20454;-69
2021/12/25 08:03:03;;;;;;;1.60;0.90;;;;;;;;;;5074551;28;20438;-71
2021/12/25 08:05:29;;;;;;;2.87;0.80;;;;;;;;;;5074794;28;20763;-71
2021/12/25 08:07:55;;;;;;;3.10;1.00;;;;;;;;;;5074170;28;20406;-69
2021/12/25 08:10:21;;;;;;;4.43;2.77;;;;;;;;;;5072961;28;20419;-69
2021/12/25 08:12:48;;;;;;;3.73;1.20;;;;;;;;;;5073540;28;20426;-71
2021/12/25 08:15:15;;;;;;;3.10;1.30;;;;;;;;;;5074306;28;20407;-71
2021/12/25 08:17:42;;;;;;;1.80;0.87;;;;;;;;;;5073944;28;20433;-71
2021/12/25 08:20:09;;;;;;;1.80;0.90;;;;;;;;;;5073678;28;20399;-67
2021/12/25 08:22:35;;;;;;;2.83;1.10;;;;;;;;;;5073503;28;20546;-71
2021/12/25 08:25:01;;;;;;;1.47;1.10;;;;;;;;;;5074341;28;20418;-71
2021/12/25 08:27:27;;;;;;;1.17;0.77;;;;;;;;;;5074239;28;20744;-69
2021/12/25 08:29:54;;;;;;;2.63;1.20;;;;;;;;;;5073571;28;20419;-69
2021/12/25 08:32:20;;;;;;;2.00;1.23;;;;;;;;;;5073692;28;20421;-73
2021/12/25 08:34:46;;;;;;;3.13;1.30;;;;;;;;;;5074047;28;20916;-69
2021/12/25 08:37:12;;;;;;;1.57;1.03;;;;;;;;;;5073324;28;20419;-72
2021/12/25 08:39:38;;;;;;;1.63;1.20;;;;;;;;;;5073930;28;20430;-71
2021/12/25 08:42:06;;;;;;;4.00;2.20;;;;;;;;;;5073374;28;20970;-68
2021/12/25 08:44:37;;;;;;;2.30;1.53;;;;;;;;;;5073407;28;20426;-68
2021/12/25 08:47:05;;;;;;;1.90;1.30;;;;;;;;;;5075258;28;20410;-67
2021/12/25 08:49:32;;;;;;;2.10;1.00;;;;;;;;;;5073742;28;20465;-72
2021/12/25 08:52:00;;;;;;;3.63;1.53;;;;;;;;;;5073282;28;20411;-69
2021/12/25 08:54:27;;;;;;;2.13;0.90;;;;;;;;;;5074837;28;20899;-69
2021/12/25 08:56:53;;;;;;;3.97;1.03;;;;;;;;;;5073226;28;20422;-70
2021/12/25 08:59:20;;;;;;;2.60;1.17;;;;;;;;;;5074877;28;20446;-67
2021/12/25 09:01:47;;;;;;;1.90;1.27;;;;;;;;;;5074507;28;20450;-70
2021/12/25 09:04:13;;;;;;;4.03;1.70;;;;;;;;;;5072555;28;20807;-69
2021/12/25 09:06:40;;;;;;;6.00;1.67;;;;;;;;;;5073973;28;20411;-68
2021/12/25 09:09:10;;;;;;;1.63;1.10;;;;;;;;;;5072988;28;20960;-68
2021/12/25 09:11:37;;;;;;;3.53;1.87;;;;;;;;;;5074402;28;20399;-70
2021/12/25 09:14:04;;;;;;;5.60;1.10;;;;;;;;;;5079671;28;20945;-68
2021/12/25 09:16:31;;;;;;;6.40;1.30;;;;;;;;;;5079610;28;20407;-68
2021/12/25 09:18:57;;;;;;;3.00;1.10;;;;;;;;;;5072691;28;20796;-68
2021/12/25 09:21:24;;;;;;;5.93;1.87;;;;;;;;;;5073240;28;20463;-68
2021/12/25 09:23:51;;;;;;;14.70;1.53;;;;;;;;;;5074178;28;20437;-68
2021/12/25 09:26:17;;;;;;;2.20;1.20;;;;;;;;;;5074273;28;20490;-69
2021/12/25 09:28:45;;;;;;;2.57;1.10;;;;;;;;;;5072895;28;20414;-68
2021/12/25 09:31:11;;;;;;;3.00;1.40;;;;;;;;;;5071571;28;20454;-68
2021/12/25 09:33:38;;;;;;;3.10;1.17;;;;;;;;;;5073520;28;20509;-67
2021/12/25 09:36:06;;;;;;;3.67;1.20;;;;;;;;;;5072444;28;20411;-67
2021/12/25 09:38:33;;;;;;;6.40;1.07;;;;;;;;;;5072487;28;20502;-71
2021/12/25 09:41:00;;;;;;;5.77;1.50;;;;;;;;;;5072031;28;20466;-68
2021/12/25 09:43:28;;;;;;;2.90;1.70;;;;;;;;;;5073319;28;20914;-69
2021/12/25 09:45:54;;;;;;;3.80;2.33;;;;;;;;;;5073679;28;20403;-68
2021/12/25 09:48:20;;;;;;;5.63;2.40;;;;;;;;;;5073716;28;20402;-71
2021/12/25 09:50:47;;;;;;;5.30;2.43;;;;;;;;;;5071980;28;20407;-69
2021/12/25 09:53:14;;;;;;;4.10;2.20;;;;;;;;;;5072376;28;20431;-70
2021/12/25 09:55:40;;;;;;;5.60;1.60;;;;;;;;;;5072224;28;20410;-68
2021/12/25 09:58:07;;;;;;;14.00;4.93;;;;;;;;;;5073200;28;20414;-70
2021/12/25 10:00:35;;;;;;;24.33;7.10;;;;;;;;;;5073214;28;20403;-69
2021/12/25 10:03:01;;;;;;;29.40;10.20;;;;;;;;;;5072081;28;20484;-67
2021/12/25 10:05:29;;;;;;;24.70;9.90;;;;;;;;;;5072042;28;20411;-68
2021/12/25 10:08:01;;;;;;;13.93;3.40;;;;;;;;;;5071215;28;20423;-69
2021/12/25 10:10:36;;;;;;;50.37;10.63;;;;;;;;;;5069577;28;20771;-68
2021/12/25 10:13:02;;;;;;;22.60;4.20;;;;;;;;;;5073054;28;20422;-68
2021/12/25 10:15:29;;;;;;;18.90;2.90;;;;;;;;;;5071556;28;20417;-69
2021/12/25 10:18:00;;;;;;;5.60;2.97;;;;;;;;;;5073031;28;20399;-70
2021/12/25 10:20:28;;;;;;;34.27;3.27;;;;;;;;;;5070527;28;20407;-69
2021/12/25 10:22:56;;;;;;;5.80;2.73;;;;;;;;;;5072919;28;20423;-70
2021/12/25 10:25:22;;;;;;;11.53;4.57;;;;;;;;;;5073161;28;20413;-71
2021/12/25 10:27:50;;;;;;;23.07;4.47;;;;;;;;;;5071481;28;20422;-67
2021/12/25 10:30:16;;;;;;;16.67;5.93;;;;;;;;;;5071472;28;20506;-68
2021/12/25 10:32:43;;;;;;;25.73;6.30;;;;;;;;;;5071212;28;20431;-70
2021/12/25 10:35:22;;;;;;;12.37;5.60;;;;;;;;;;5071553;28;20407;-69
2021/12/25 10:37:53;;;;;;;12.57;3.90;;;;;;;;;;5071779;28;20416;-69
2021/12/25 10:40:24;;;;;;;30.43;4.93;;;;;;;;;;5071472;28;20472;-69
2021/12/25 10:42:51;;;;;;;11.50;3.87;;;;;;;;;;5072783;28;20427;-69
2021/12/25 10:45:17;;;;;;;12.40;4.70;;;;;;;;;;5070947;28;20427;-69
2021/12/25 10:47:43;;;;;;;10.83;3.90;;;;;;;;;;5071550;28;20407;-69
2021/12/25 10:50:14;;;;;;;6.97;4.40;;;;;;;;;;5071158;28;20406;-67
2021/12/25 10:52:44;;;;;;;9.23;4.77;;;;;;;;;;5071352;28;20427;-67
2021/12/25 10:55:16;;;;;;;13.07;4.83;;;;;;;;;;5071556;28;20490;-68
2021/12/25 10:57:43;;;;;;;15.17;5.77;;;;;;;;;;5070692;28;20411;-70
2021/12/25 11:00:11;;;;;;;15.20;5.50;;;;;;;;;;5069980;28;20429;-66
2021/12/25 11:02:39;;;;;;;19.10;8.23;;;;;;;;;;5071040;28;20823;-67
2021/12/25 11:05:37;;;;;;;17.87;6.73;;;;;;;;;;5071548;28;20842;-68
2021/12/25 11:08:03;;;;;;;17.87;5.30;;;;;;;;;;5035471;28;20426;-70
2021/12/25 11:10:30;;;;;;;26.73;6.70;;;;;;;;;;5069617;28;20415;-68
2021/12/25 11:12:56;;;;;;;9.57;4.50;;;;;;;;;;5068618;28;20443;-68
2021/12/25 11:15:24;;;;;;;7.83;3.70;;;;;;;;;;5070984;28;20794;-69
2021/12/25 11:17:53;;;;;;;8.17;3.27;;;;;;;;;;5069931;28;20423;-66
2021/12/25 11:20:34;;;;;;;8.50;4.50;;;;;;;;;;5070851;28;20419;-67
2021/12/25 11:23:04;;;;;;;9.97;4.20;;;;;;;;;;5070651;28;20446;-71
2021/12/25 11:25:31;;;;;;;7.53;2.60;;;;;;;;;;5070893;28;20415;-67
2021/12/25 11:27:58;;;;;;;16.73;3.43;;;;;;;;;;5071140;28;20790;-68
2021/12/25 11:30:26;;;;;;;12.13;3.13;;;;;;;;;;5071940;28;20411;-70
2021/12/25 11:32:53;;;;;;;13.03;2.47;;;;;;;;;;5073866;28;20430;-67
2021/12/25 11:35:19;;;;;;;7.13;2.07;;;;;;;;;;5073953;28;20846;-66
2021/12/25 11:37:47;;;;;;;4.80;2.00;;;;;;;;;;5076059;28;20419;-68
2021/12/25 11:40:14;;;;;;;6.07;1.93;;;;;;;;;;5057288;28;20419;-67
2021/12/25 11:42:41;;;;;;;6.53;2.10;;;;;;;;;;5081956;28;20552;-67
2021/12/25 11:45:12;;;;;;;4.00;2.00;;;;;;;;;;5054837;28;20923;-69
2021/12/25 11:47:42;;;;;;;2.30;1.10;;;;;;;;;;5068150;28;20502;-68
2021/12/25 11:50:13;;;;;;;6.33;1.70;;;;;;;;;;5074447;28;20507;-66
2021/12/25 11:52:49;;;;;;;5.77;2.00;;;;;;;;;;5074338;28;20446;-68
2021/12/25 11:58:25;;;;;;;3.10;1.70;;;;;;;;;;5071707;28;20422;-68
2021/12/25 12:00:52;;;;;;;4.10;1.70;;;;;;;;;;5071624;28;20459;-68
2021/12/25 12:03:38;;;;;;;2.10;1.30;;;;;;;;;;5084798;28;20451;-68
2021/12/25 12:06:04;;;;;;;3.10;1.80;;;;;;;;;;5070834;28;20755;-68
2021/12/25 12:08:50;;;;;;;3.43;1.60;;;;;;;;;;5072677;28;20411;-69
2021/12/25 12:11:23;;;;;;;2.63;1.97;;;;;;;;;;5072182;28;20926;-67
2021/12/25 12:14:09;;;;;;;3.07;1.37;;;;;;;;;;5053893;28;20439;-69
2021/12/25 12:16:37;;;;;;;2.60;1.33;;;;;;;;;;5065321;28;20407;-71
2021/12/25 12:19:03;;;;;;;1.57;1.13;;;;;;;;;;5073945;28;20579;-67
2021/12/25 12:21:38;;;;;;;5.50;1.47;;;;;;;;;;5072858;28;20541;-69
2021/12/25 12:24:40;;;;;;;2.77;1.77;;;;;;;;;;5072352;28;20498;-72
2021/12/25 12:27:06;;;;;;;10.30;1.73;;;;;;;;;;5074067;28;20406;-68
2021/12/25 12:29:38;;;;;;;6.27;2.60;;;;;;;;;;5073001;28;20423;-71
2021/12/25 12:32:05;;;;;;;4.73;2.53;;;;;;;;;;5072900;28;20542;-71
2021/12/25 12:34:38;;;;;;;3.97;1.80;;;;;;;;;;5072115;28;20431;-69
2021/12/25 12:37:16;;;;;;;3.60;1.40;;;;;;;;;;5072885;28;20462;-69
2021/12/25 12:40:00;;;;;;;3.70;1.73;;;;;;;;;;5073649;28;20430;-67
2021/12/25 12:42:38;;;;;;;2.17;1.40;;;;;;;;;;5072708;28;20446;-68
2021/12/25 12:45:11;;;;;;;2.87;1.53;;;;;;;;;;5073277;28;20950;-72
2021/12/25 12:47:37;;;;;;;1.80;1.20;;;;;;;;;;5073549;28;20403;-69
2021/12/25 12:50:04;;;;;;;2.20;1.30;;;;;;;;;;5073225;28;20442;-69
2021/12/25 12:52:35;;;;;;;2.90;1.27;;;;;;;;;;5074900;28;20419;-70
2021/12/25 12:55:06;;;;;;;4.53;2.70;;;;;;;;;;5073135;28;20418;-71
2021/12/25 12:57:35;;;;;;;3.33;1.60;;;;;;;;;;5073582;28;20421;-70
2021/12/25 13:00:13;;;;;;;16.93;2.23;;;;;;;;;;5072649;28;20430;-72
2021/12/25 13:02:44;;;;;;;6.40;1.90;;;;;;;;;;5073360;28;20491;-72
2021/12/25 13:05:11;;;;;;;2.20;1.50;;;;;;;;;;5071517;28;20419;-72
2021/12/25 13:07:39;;;;;;;2.23;1.30;;;;;;;;;;5072002;28;20422;-70
2021/12/25 13:10:13;;;;;;;2.20;1.53;;;;;;;;;;5070230;28;20759;-73
2021/12/25 13:12:50;;;;;;;2.30;1.63;;;;;;;;;;5087450;28;20446;-69
2021/12/25 13:15:25;;;;;;;1.80;1.17;;;;;;;;;;5072778;28;20951;-67
2021/12/25 13:17:59;;;;;;;2.50;1.60;;;;;;;;;;5072228;28;20961;-70
2021/12/25 13:20:33;;;;;;;4.00;1.40;;;;;;;;;;5071437;28;20415;-70
2021/12/25 13:23:01;;;;;;;3.77;1.77;;;;;;;;;;5072579;28;20470;-69
2021/12/25 13:25:27;;;;;;;3.60;1.53;;;;;;;;;;5072450;28;20496;-68
2021/12/25 13:28:00;;;;;;;3.03;1.70;;;;;;;;;;5072648;28;20407;-70
2021/12/25 13:30:27;;;;;;;3.03;1.67;;;;;;;;;;5072177;28;20422;-68
2021/12/25 13:32:53;;;;;;;3.63;1.90;;;;;;;;;;5072665;28;20429;-67
2021/12/25 13:35:22;;;;;;;3.20;1.73;;;;;;;;;;5073015;28;20416;-71
2021/12/25 13:37:56;;;;;;;5.17;1.83;;;;;;;;;;5072716;28;20748;-67
2021/12/25 13:40:22;;;;;;;3.87;1.77;;;;;;;;;;5072246;28;20446;-73
2021/12/25 13:42:48;;;;;;;4.00;1.60;;;;;;;;;;5072431;28;20490;-68
2021/12/25 13:45:14;;;;;;;4.57;1.40;;;;;;;;;;5072457;28;20514;-67
2021/12/25 13:47:40;;;;;;;3.13;1.97;;;;;;;;;;5071907;28;20465;-68
2021/12/25 13:50:09;;;;;;;3.77;1.80;;;;;;;;;;5072028;28;20433;-68
2021/12/25 13:52:50;;;;;;;2.20;1.67;;;;;;;;;;5072157;28;20442;-68
2021/12/25 13:55:19;;;;;;;3.07;1.70;;;;;;;;;;5072247;28;20877;-69
2021/12/25 13:57:50;;;;;;;1.90;1.50;;;;;;;;;;5072040;28;20430;-68
2021/12/25 14:00:17;;;;;;;3.30;1.70;;;;;;;;;;5071373;28;20514;-67
2021/12/25 14:02:49;;;;;;;2.33;1.70;;;;;;;;;;5070915;28;20458;-68
2021/12/25 14:05:16;;;;;;;6.17;2.97;;;;;;;;;;5062553;28;20433;-69
2021/12/25 14:07:42;;;;;;;4.80;2.87;;;;;;;;;;5071975;28;20411;-68
2021/12/25 14:10:10;;;;;;;11.37;3.57;;;;;;;;;;5070555;28;20431;-70
2021/12/25 14:12:38;;;;;;;8.30;2.70;;;;;;;;;;5071459;28;20446;-70
2021/12/25 14:15:05;;;;;;;7.13;3.40;;;;;;;;;;5073445;28;20427;-70
2021/12/25 14:17:31;;;;;;;6.97;2.60;;;;;;;;;;5069618;28;20429;-70
2021/12/25 14:20:08;;;;;;;5.93;3.00;;;;;;;;;;5070510;28;20442;-71
2021/12/25 14:22:34;;;;;;;5.43;2.90;;;;;;;;;;5069862;28;20493;-70
2021/12/25 14:25:01;;;;;;;9.03;3.67;;;;;;;;;;5072183;28;20476;-69
2021/12/25 14:27:28;;;;;;;5.00;2.73;;;;;;;;;;5071313;28;20403;-69
2021/12/25 14:30:03;;;;;;;6.33;3.17;;;;;;;;;;5070277;28;20454;-70
2021/12/25 14:32:30;;;;;;;7.90;3.57;;;;;;;;;;5070417;28;20414;-69
2021/12/25 14:34:57;;;;;;;8.80;3.80;;;;;;;;;;5069277;28;20422;-70
2021/12/25 14:37:34;;;;;;;7.07;3.10;;;;;;;;;;5071224;28;20505;-70
2021/12/25 14:40:06;;;;;;;5.20;2.93;;;;;;;;;;5069968;28;20968;-71
2021/12/25 14:42:34;;;;;;;6.83;3.00;;;;;;;;;;5069948;28;20494;-70
2021/12/25 14:45:00;;;;;;;12.47;3.50;;;;;;;;;;5070590;28;20911;-71
2021/12/25 14:47:26;;;;;;;9.60;2.87;;;;;;;;;;5069191;28;20419;-71
2021/12/25 14:49:52;;;;;;;3.80;2.60;;;;;;;;;;5069955;28;20933;-69
2021/12/25 14:52:19;;;;;;;6.30;3.17;;;;;;;;;;5070319;28;20468;-71
2021/12/25 14:54:45;;;;;;;3.13;2.00;;;;;;;;;;5069297;28;20896;-69
2021/12/25 14:57:28;;;;;;;8.40;2.70;;;;;;;;;;5070008;28;20480;-69
2021/12/25 14:59:54;;;;;;;4.80;2.63;;;;;;;;;;5070015;28;20445;-70
2021/12/25 15:02:22;;;;;;;8.23;2.40;;;;;;;;;;5069347;28;20804;-71
2021/12/25 15:04:53;;;;;;;5.37;2.60;;;;;;;;;;5070040;28;20451;-70
2021/12/25 15:07:20;;;;;;;6.67;2.83;;;;;;;;;;5074684;28;20422;-71
2021/12/25 15:09:48;;;;;;;7.00;2.73;;;;;;;;;;5073788;28;20426;-69
2021/12/25 15:12:21;;;;;;;4.57;2.37;;;;;;;;;;5073940;28;20426;-69
2021/12/25 15:14:50;;;;;;;5.23;2.43;;;;;;;;;;5072606;28;20426;-71
2021/12/25 15:17:17;;;;;;;3.23;1.97;;;;;;;;;;5073223;28;20916;-72
2021/12/25 15:19:56;;;;;;;6.60;3.07;;;;;;;;;;5073735;28;21521;-70
2021/12/25 15:22:23;;;;;;;5.60;2.80;;;;;;;;;;5073445;28;20461;-69
2021/12/25 15:24:55;;;;;;;9.30;3.90;;;;;;;;;;5073157;28;20419;-68
2021/12/25 15:27:23;;;;;;;6.50;3.63;;;;;;;;;;5075992;28;20410;-69
2021/12/25 15:29:50;;;;;;;8.03;4.00;;;;;;;;;;5077832;28;20415;-69
2021/12/25 15:32:17;;;;;;;29.93;4.70;;;;;;;;;;5082620;28;20857;-71
2021/12/25 15:34:53;;;;;;;8.30;4.07;;;;;;;;;;5091658;28;20470;-70
2021/12/25 15:37:21;;;;;;;9.63;4.43;;;;;;;;;;5085830;28;20429;-71
2021/12/25 15:39:47;;;;;;;8.53;4.23;;;;;;;;;;5076999;28;20426;-70
2021/12/25 15:42:13;;;;;;;10.87;3.90;;;;;;;;;;5073550;28;20530;-71
2021/12/25 15:44:39;;;;;;;8.17;4.83;;;;;;;;;;5074224;28;20498;-70
2021/12/25 15:47:05;;;;;;;7.20;3.80;;;;;;;;;;5074013;28;20464;-69
2021/12/25 15:49:31;;;;;;;5.70;3.20;;;;;;;;;;5073747;28;20415;-73
2021/12/25 15:51:59;;;;;;;8.80;4.63;;;;;;;;;;5073732;28;20521;-71
2021/12/25 15:54:25;;;;;;;7.60;3.63;;;;;;;;;;5072855;28;20457;-71
2021/12/25 15:56:57;;;;;;;7.00;3.63;;;;;;;;;;5073891;28;20422;-72
2021/12/25 15:59:25;;;;;;;7.93;3.90;;;;;;;;;;5070589;28;20426;-72
2021/12/25 16:01:51;;;;;;;6.87;3.90;;;;;;;;;;5072701;28;20537;-70
2021/12/25 16:04:17;;;;;;;7.93;4.43;;;;;;;;;;5071879;28;20438;-69
2021/12/25 16:06:43;;;;;;;10.80;4.73;;;;;;;;;;5072701;28;20764;-71
2021/12/25 16:09:09;;;;;;;10.43;4.33;;;;;;;;;;5072501;28;20480;-71
2021/12/25 16:11:35;;;;;;;9.43;4.60;;;;;;;;;;5072523;28;20430;-69